Time;durP1;ratioP1;P1;durP2;ratioP2;P2;SDS_P1;SDS_P2;PMS_P1;PMS_P2;Temp;Humidity;BMP_temperature;BMP_pressure;BME280_temperature;BME280_humidity;BME280_pressure;Samples;Min_cycle;Max_cycle;Signal;HPM_P1;HPM_P2
2023/06/24 00:01:27;;;;;;;14.15;10.35;;;;;;;-142.43;100.00;63430.59;4963744;29;20051;-88
2023/06/24 00:03:54;;;;;;;12.20;9.48;;;;;;;-142.43;100.00;63430.59;4963135;29;20483;-90
2023/06/24 00:06:22;;;;;;;14.88;9.27;;;;;;;-142.43;100.00;63430.59;4962388;29;20115;-88
2023/06/24 00:08:50;;;;;;;12.63;9.23;;;;;;;-142.43;100.00;63430.59;4962574;29;20060;-89
2023/06/24 00:11:17;;;;;;;13.57;9.95;;;;;;;-142.43;100.00;63430.59;4962473;29;20130;-89
2023/06/24 00:13:45;;;;;;;12.98;9.70;;;;;;;-142.43;100.00;63430.59;4962655;29;20058;-89
2023/06/24 00:16:12;;;;;;;11.30;9.52;;;;;;;-142.43;100.00;63430.59;4961551;29;20051;-89
2023/06/24 00:18:41;;;;;;;12.60;9.13;;;;;;;-142.43;100.00;63430.59;4962440;29;20094;-89
2023/06/24 00:21:08;;;;;;;12.60;9.15;;;;;;;-142.43;100.00;63430.59;4963213;29;20078;-89
2023/06/24 00:23:34;;;;;;;10.98;9.07;;;;;;;-142.43;100.00;63430.59;4960710;29;20063;-90
2023/06/24 00:26:01;;;;;;;10.77;9.40;;;;;;;-142.43;100.00;63430.59;4962699;29;20407;-88
2023/06/24 00:28:28;;;;;;;14.70;9.18;;;;;;;-142.43;100.00;63430.59;4962395;29;20075;-89
2023/06/24 00:30:56;;;;;;;11.82;9.10;;;;;;;-142.43;100.00;63430.59;4961717;29;20079;-89
2023/06/24 00:33:25;;;;;;;11.70;9.30;;;;;;;-142.43;100.00;63430.59;4951368;29;20148;-89
2023/06/24 00:35:52;;;;;;;15.43;9.73;;;;;;;-142.43;100.00;63430.59;4957448;29;20138;-89
2023/06/24 00:38:19;;;;;;;12.52;9.23;;;;;;;-142.43;100.00;63430.59;4961981;29;20122;-89
2023/06/24 00:40:46;;;;;;;17.00;9.73;;;;;;;-142.43;100.00;63430.59;4961379;29;20110;-89
2023/06/24 00:43:15;;;;;;;11.80;8.85;;;;;;;-142.43;100.00;63430.59;4961190;29;20097;-88
2023/06/24 00:45:43;;;;;;;13.77;8.73;;;;;;;-142.43;100.00;63430.59;4961430;29;20173;-88
2023/06/24 00:48:11;;;;;;;15.00;10.25;;;;;;;-142.43;100.00;63430.59;4961174;29;20105;-88
2023/06/24 00:50:42;;;;;;;14.80;11.32;;;;;;;-142.43;100.00;63430.59;4959010;29;20134;-89
2023/06/24 00:53:08;;;;;;;13.32;11.30;;;;;;;-142.43;100.00;63430.59;4961281;28;20142;-89
2023/06/24 00:55:35;;;;;;;12.98;10.85;;;;;;;-142.43;100.00;63430.59;4958398;29;20146;-90
2023/06/24 00:58:02;;;;;;;13.23;10.93;;;;;;;-142.43;100.00;63430.59;4957183;28;20051;-90
2023/06/24 01:00:29;;;;;;;14.23;10.35;;;;;;;-142.43;100.00;63430.59;4950398;29;20640;-89
2023/06/24 01:02:57;;;;;;;14.02;10.65;;;;;;;-142.43;100.00;63430.59;4958336;29;20065;-90
2023/06/24 01:05:27;;;;;;;13.07;10.95;;;;;;;-142.43;100.00;63430.59;4958723;29;20118;-88
2023/06/24 01:07:55;;;;;;;14.68;10.68;;;;;;;-142.43;100.00;63430.59;4945698;29;20502;-89
2023/06/24 01:10:23;;;;;;;14.30;10.50;;;;;;;-142.43;100.00;63430.59;4959364;29;20043;-90
2023/06/24 01:12:50;;;;;;;14.95;10.55;;;;;;;-142.43;100.00;63430.59;4962117;29;20492;-90
2023/06/24 01:15:19;;;;;;;13.95;9.75;;;;;;;-142.43;100.00;63430.59;4961341;29;20480;-90
2023/06/24 01:17:54;;;;;;;15.32;10.07;;;;;;;-142.43;100.00;63430.59;4961758;29;20055;-90
2023/06/24 01:20:28;;;;;;;14.70;10.57;;;;;;;-142.43;100.00;63430.59;4957172;29;20047;-89
2023/06/24 01:23:12;;;;;;;11.95;10.43;;;;;;;-142.43;100.00;63430.59;4970149;29;20057;-90
2023/06/24 01:25:54;;;;;;;17.92;10.43;;;;;;;-142.43;100.00;63430.59;4959645;29;20075;-89
2023/06/24 01:28:31;;;;;;;12.70;10.57;;;;;;;-142.43;100.00;63430.59;4966068;29;20078;-89
2023/06/24 01:31:26;;;;;;;16.13;10.68;;;;;;;-142.43;100.00;63430.59;4963923;29;20050;-90
2023/06/24 01:33:59;;;;;;;17.60;12.43;;;;;;;-142.43;100.00;63430.59;4958862;29;20087;-89
2023/06/24 01:36:29;;;;;;;18.77;11.25;;;;;;;-142.43;100.00;63430.59;4963065;29;20047;-89
2023/06/24 01:39:02;;;;;;;13.43;12.02;;;;;;;-142.43;100.00;63430.59;4969884;28;20047;-90
2023/06/24 01:41:33;;;;;;;16.08;12.13;;;;;;;-142.43;100.00;63430.59;4966197;29;20078;-88
2023/06/24 01:44:01;;;;;;;16.85;11.43;;;;;;;-142.43;100.00;63430.59;4965881;28;20051;-89
2023/06/24 01:46:30;;;;;;;16.83;13.02;;;;;;;-142.43;100.00;63430.59;4968417;28;20394;-88
2023/06/24 01:49:02;;;;;;;16.83;11.95;;;;;;;-142.43;100.00;63430.59;4973688;28;20071;-88
2023/06/24 01:51:31;;;;;;;16.60;12.27;;;;;;;-142.43;100.00;63430.59;4977650;28;20043;-88
2023/06/24 01:54:12;;;;;;;17.65;12.25;;;;;;;-142.43;100.00;63430.59;4977795;28;20267;-89
2023/06/24 01:56:42;;;;;;;15.90;12.25;;;;;;;-142.43;100.00;63430.59;4978065;28;20051;-88
2023/06/24 01:59:11;;;;;;;18.17;12.38;;;;;;;-142.43;100.00;63430.59;4978198;28;20031;-88
2023/06/24 02:01:40;;;;;;;16.67;12.70;;;;;;;-142.43;100.00;63430.59;4977464;28;20047;-89
2023/06/24 02:04:09;;;;;;;15.20;12.13;;;;;;;-142.43;100.00;63430.59;4977278;29;20035;-88
2023/06/24 02:06:38;;;;;;;18.17;12.25;;;;;;;-142.43;100.00;63430.59;4964739;29;20099;-89
2023/06/24 02:09:06;;;;;;;16.08;12.75;;;;;;;-142.43;100.00;63430.59;4972815;28;20051;-89
2023/06/24 02:11:34;;;;;;;19.30;13.10;;;;;;;-142.43;100.00;63430.59;4973658;29;20051;-90
2023/06/24 02:14:04;;;;;;;20.52;13.70;;;;;;;-142.43;100.00;63430.59;4963975;29;20075;-89
2023/06/24 02:16:32;;;;;;;17.02;13.30;;;;;;;-142.43;100.00;63430.59;4961608;29;20455;-89
2023/06/24 02:19:03;;;;;;;15.52;12.85;;;;;;;-142.43;100.00;63430.59;4961769;29;20058;-89
2023/06/24 02:21:30;;;;;;;16.80;13.30;;;;;;;-142.43;100.00;63430.59;4946961;29;20039;-89
2023/06/24 02:23:58;;;;;;;20.48;13.23;;;;;;;-142.43;100.00;63430.59;4962639;29;20082;-89
2023/06/24 02:26:26;;;;;;;23.17;13.25;;;;;;;-142.43;100.00;63430.59;4952849;29;20375;-89
2023/06/24 02:28:54;;;;;;;18.60;13.90;;;;;;;-142.43;100.00;63430.59;4959986;29;20079;-88
2023/06/24 02:31:21;;;;;;;19.40;14.13;;;;;;;-142.43;100.00;63430.59;4952686;29;20107;-90
2023/06/24 02:33:47;;;;;;;20.83;14.65;;;;;;;-142.43;100.00;63430.59;4959915;29;20134;-90
2023/06/24 02:36:15;;;;;;;24.15;16.00;;;;;;;-142.43;100.00;63430.59;4958157;29;20110;-91
2023/06/24 02:38:42;;;;;;;22.58;15.70;;;;;;;-142.43;100.00;63430.59;4953466;29;20083;-90
2023/06/24 02:41:09;;;;;;;23.13;16.50;;;;;;;-142.43;100.00;63430.59;4959694;29;20082;-89
2023/06/24 02:43:37;;;;;;;23.75;16.02;;;;;;;-142.43;100.00;63430.59;4959809;29;20071;-88
2023/06/24 05:10:22;;;;;;;21.88;11.43;;;;;;;-142.43;100.00;63430.59;4890055;29;20075;-89
2023/06/24 05:12:48;;;;;;;19.63;11.60;;;;;;;-142.43;100.00;63430.59;4892930;29;20088;-87
2023/06/24 05:15:15;;;;;;;17.83;11.15;;;;;;;-142.43;100.00;63430.59;4897805;29;20436;-87
2023/06/24 05:17:42;;;;;;;16.65;11.43;;;;;;;-142.43;100.00;63430.59;4899262;29;20099;-87
2023/06/24 05:20:10;;;;;;;12.88;10.95;;;;;;;-142.43;100.00;63430.59;4898213;29;20131;-86
2023/06/24 05:22:37;;;;;;;19.33;10.77;;;;;;;-142.43;100.00;63430.59;4898246;29;20083;-86
2023/06/24 05:25:03;;;;;;;15.98;10.68;;;;;;;-142.43;100.00;63430.59;4897663;29;20095;-86
2023/06/24 05:27:31;;;;;;;16.02;11.10;;;;;;;-142.43;100.00;63430.59;4890183;29;20127;-88
2023/06/24 05:29:58;;;;;;;13.48;10.60;;;;;;;-142.43;100.00;63430.59;4897258;29;20060;-88
2023/06/24 05:32:25;;;;;;;11.85;9.70;;;;;;;-142.43;100.00;63430.59;4897093;29;20135;-87
2023/06/24 05:34:51;;;;;;;15.77;9.95;;;;;;;-142.43;100.00;63430.59;4889647;29;20179;-88
2023/06/24 05:37:18;;;;;;;14.30;9.25;;;;;;;-142.43;100.00;63430.59;4897052;29;20115;-88
2023/06/24 05:39:44;;;;;;;12.93;9.32;;;;;;;-142.43;100.00;63430.59;4898383;29;20116;-88
2023/06/24 05:42:11;;;;;;;16.02;9.98;;;;;;;-142.43;100.00;63430.59;4897065;29;20152;-88
2023/06/24 05:44:39;;;;;;;17.80;10.25;;;;;;;-142.43;100.00;63430.59;4897039;29;20092;-87
2023/06/24 05:47:06;;;;;;;16.27;11.02;;;;;;;-142.43;100.00;63430.59;4897813;29;20567;-88
2023/06/24 05:49:32;;;;;;;13.13;9.80;;;;;;;-142.43;100.00;63430.59;4900353;29;20135;-87
2023/06/24 05:51:59;;;;;;;13.18;9.80;;;;;;;-142.43;100.00;63430.59;4913387;29;20528;-87
2023/06/24 05:54:26;;;;;;;14.25;10.02;;;;;;;-142.43;100.00;63430.59;4918344;29;20041;-88
2023/06/24 05:56:53;;;;;;;15.45;10.23;;;;;;;-142.43;100.00;63430.59;4918671;29;20053;-87
2023/06/24 05:59:19;;;;;;;12.57;9.95;;;;;;;-142.43;100.00;63430.59;4917316;29;20056;-88
2023/06/24 06:01:47;;;;;;;16.60;10.63;;;;;;;-142.43;100.00;63430.59;4905790;29;20295;-88
2023/06/24 06:04:14;;;;;;;12.75;10.00;;;;;;;-142.43;100.00;63430.59;4918463;29;20060;-88
2023/06/24 06:06:40;;;;;;;14.65;9.35;;;;;;;-142.43;100.00;63430.59;4910240;29;20032;-88
2023/06/24 06:09:07;;;;;;;12.48;10.32;;;;;;;-142.43;100.00;63430.59;4917804;29;20043;-87
2023/06/24 06:11:34;;;;;;;17.95;10.55;;;;;;;-142.43;100.00;63430.59;4913074;29;20080;-88
2023/06/24 06:14:00;;;;;;;19.60;11.05;;;;;;;-142.43;100.00;63430.59;4895651;29;20087;-88
2023/06/24 06:16:28;;;;;;;14.57;9.75;;;;;;;-142.43;100.00;63430.59;4899351;29;20080;-87
2023/06/24 06:18:56;;;;;;;14.05;9.80;;;;;;;-142.43;100.00;63430.59;4891571;29;20063;-88
2023/06/24 06:21:23;;;;;;;15.57;10.82;;;;;;;-142.43;100.00;63430.59;4898169;29;20136;-88
2023/06/24 06:23:49;;;;;;;12.00;9.82;;;;;;;-142.43;100.00;63430.59;4898214;29;20087;-87
2023/06/24 06:26:16;;;;;;;11.98;10.07;;;;;;;-142.43;100.00;63430.59;4883283;29;20057;-87
2023/06/24 06:28:43;;;;;;;14.68;9.45;;;;;;;-142.43;100.00;63430.59;4952095;29;20134;-88
2023/06/24 06:31:09;;;;;;;14.48;10.40;;;;;;;-142.43;100.00;63430.59;4957316;29;20138;-88
2023/06/24 06:33:36;;;;;;;10.38;9.05;;;;;;;-142.43;100.00;63430.59;4956838;29;20142;-88
2023/06/24 06:36:04;;;;;;;13.15;9.63;;;;;;;-142.43;100.00;63430.59;4957877;29;20079;-87
2023/06/24 06:38:30;;;;;;;13.85;8.77;;;;;;;-142.43;100.00;63430.59;4957889;29;20562;-87
2023/06/24 06:40:57;;;;;;;15.00;9.38;;;;;;;-142.43;100.00;63430.59;4957095;29;20107;-87
2023/06/24 06:43:24;;;;;;;13.02;9.63;;;;;;;-142.43;100.00;63430.59;4959751;29;20144;-90
2023/06/24 06:45:51;;;;;;;12.68;8.13;;;;;;;-142.43;100.00;63430.59;4961408;29;20114;-90
2023/06/24 06:48:17;;;;;;;15.43;7.75;;;;;;;-142.43;100.00;63430.59;4955390;29;20055;-88
2023/06/24 06:50:45;;;;;;;10.98;7.45;;;;;;;-142.43;100.00;63430.59;4956033;29;20107;-89
2023/06/24 06:53:13;;;;;;;13.10;8.07;;;;;;;-142.43;100.00;63430.59;4971052;28;20062;-88
2023/06/24 06:55:42;;;;;;;14.70;8.57;;;;;;;-142.43;100.00;63430.59;4977143;28;20031;-89
2023/06/24 06:58:09;;;;;;;19.48;8.23;;;;;;;-142.43;100.00;63430.59;4980584;28;20491;-89
2023/06/24 07:00:36;;;;;;;11.82;8.25;;;;;;;-142.43;100.00;63430.59;4979907;28;20094;-89
2023/06/24 07:03:02;;;;;;;10.95;7.82;;;;;;;-142.43;100.00;63430.59;4980665;28;20042;-90
2023/06/24 07:05:29;;;;;;;10.45;7.68;;;;;;;-142.43;100.00;63430.59;4980400;28;20047;-90
2023/06/24 07:07:57;;;;;;;9.93;7.35;;;;;;;-142.43;100.00;63430.59;4980737;28;20054;-90
2023/06/24 07:10:25;;;;;;;11.02;7.55;;;;;;;-142.43;100.00;63430.59;4971444;28;20043;-89
2023/06/24 07:12:57;;;;;;;15.68;7.30;;;;;;;-142.43;100.00;63430.59;4975526;28;20039;-89
2023/06/24 07:15:25;;;;;;;8.55;6.97;;;;;;;-142.43;100.00;63430.59;4980340;28;20046;-89
2023/06/24 07:17:52;;;;;;;11.30;7.00;;;;;;;-142.43;100.00;63430.59;4980653;28;20035;-88
2023/06/24 07:20:18;;;;;;;13.95;7.25;;;;;;;-142.43;100.00;63430.59;4980119;28;20051;-88
2023/06/24 07:22:45;;;;;;;10.68;7.20;;;;;;;-142.43;100.00;63430.59;4980334;28;20042;-89
2023/06/24 07:25:12;;;;;;;10.93;7.03;;;;;;;-142.43;100.00;63430.59;4971057;28;20088;-89
2023/06/24 07:27:40;;;;;;;8.48;7.47;;;;;;;-142.43;100.00;63430.59;4973570;28;20066;-90
2023/06/24 07:30:08;;;;;;;11.05;7.57;;;;;;;-142.43;100.00;63430.59;4979360;28;20051;-88
2023/06/24 07:32:35;;;;;;;9.45;7.47;;;;;;;-142.43;100.00;63430.59;4979275;28;20059;-89
2023/06/24 07:35:02;;;;;;;10.18;7.22;;;;;;;-142.43;100.00;63430.59;4970277;28;20031;-88
2023/06/24 07:37:28;;;;;;;9.60;7.85;;;;;;;-142.43;100.00;63430.59;4959896;28;20079;-87
2023/06/24 07:39:55;;;;;;;11.88;7.55;;;;;;;-142.43;100.00;63430.59;4974894;28;20253;-88
2023/06/24 07:42:22;;;;;;;9.95;7.25;;;;;;;-142.43;100.00;63430.59;4979044;28;20039;-89
2023/06/24 07:44:50;;;;;;;9.57;7.30;;;;;;;-142.43;100.00;63430.59;4971642;28;20040;-88
2023/06/24 07:47:18;;;;;;;11.07;6.72;;;;;;;-142.43;100.00;63430.59;4970964;28;20071;-90
2023/06/24 07:49:44;;;;;;;19.30;8.80;;;;;;;-142.43;100.00;63430.59;4971371;28;20035;-87
2023/06/24 07:52:11;;;;;;;12.13;7.60;;;;;;;-142.43;100.00;63430.59;4978561;28;20039;-91
2023/06/24 07:54:38;;;;;;;10.82;7.40;;;;;;;-142.43;100.00;63430.59;4970143;29;20074;-90
2023/06/24 07:57:05;;;;;;;8.63;6.70;;;;;;;-142.43;100.00;63430.59;4958532;29;20048;-95
2023/06/24 07:59:32;;;;;;;9.93;7.80;;;;;;;-142.43;100.00;63430.59;4954367;28;20043;-93
2023/06/24 08:02:16;;;;;;;9.18;7.63;;;;;;;-142.43;100.00;63430.59;4955015;28;20055;-93
2023/06/24 08:04:43;;;;;;;10.50;7.72;;;;;;;-142.43;100.00;63430.59;4947968;28;20162;-92
2023/06/24 08:07:10;;;;;;;8.98;7.20;;;;;;;-142.43;100.00;63430.59;4952806;28;20047;-93
2023/06/24 08:09:37;;;;;;;9.68;7.57;;;;;;;-142.43;100.00;63430.59;4960306;29;20057;-91
2023/06/24 08:12:04;;;;;;;7.78;6.65;;;;;;;-142.43;100.00;63430.59;4951343;29;20062;-91
2023/06/24 08:14:31;;;;;;;9.90;7.30;;;;;;;-142.43;100.00;63430.59;4947744;28;20463;-92
2023/06/24 08:16:58;;;;;;;11.63;7.72;;;;;;;-142.43;100.00;63430.59;4950188;28;20051;-94
2023/06/24 08:19:26;;;;;;;12.13;7.75;;;;;;;-142.43;100.00;63430.59;4960370;28;20036;-93
2023/06/24 08:21:53;;;;;;;8.88;7.20;;;;;;;-142.43;100.00;63430.59;4960140;28;20062;-94
2023/06/24 08:24:20;;;;;;;10.73;7.90;;;;;;;-142.43;100.00;63430.59;4960049;28;20083;-94
2023/06/24 08:26:47;;;;;;;11.15;8.85;;;;;;;-142.43;100.00;63430.59;4960166;28;20071;-93
2023/06/24 08:29:14;;;;;;;10.82;7.95;;;;;;;-142.43;100.00;63430.59;4959925;28;20032;-93
2023/06/24 08:31:41;;;;;;;11.93;8.77;;;;;;;-142.43;100.00;63430.59;4960149;28;20035;-92
2023/06/24 08:34:08;;;;;;;11.65;8.10;;;;;;;-142.43;100.00;63430.59;4959716;28;20055;-93
2023/06/24 08:36:37;;;;;;;14.55;8.50;;;;;;;-142.43;100.00;63430.59;4959583;28;20051;-90
2023/06/24 08:39:05;;;;;;;11.93;8.50;;;;;;;-142.43;100.00;63430.59;4959730;28;20055;-94
2023/06/24 08:41:32;;;;;;;14.43;9.05;;;;;;;-142.43;100.00;63430.59;4959668;28;20061;-93
2023/06/24 08:43:59;;;;;;;12.18;8.93;;;;;;;-142.43;100.00;63430.59;4959027;28;20067;-92
2023/06/24 08:46:27;;;;;;;10.45;8.90;;;;;;;-142.43;100.00;63430.59;4959523;28;20043;-92
2023/06/24 08:49:00;;;;;;;12.18;9.35;;;;;;;-142.43;100.00;63430.59;4959777;28;20036;-92
2023/06/24 08:51:30;;;;;;;11.48;9.00;;;;;;;-142.43;100.00;63430.59;4959775;28;20066;-93
2023/06/24 08:54:00;;;;;;;16.13;10.15;;;;;;;-142.43;100.00;63430.59;4959678;28;20031;-92
2023/06/24 08:56:27;;;;;;;10.02;8.68;;;;;;;-142.43;100.00;63430.59;4958923;28;20039;-94
2023/06/24 08:58:59;;;;;;;12.13;9.57;;;;;;;-142.43;100.00;63430.59;4959158;28;20047;-91
2023/06/24 09:01:29;;;;;;;14.15;9.40;;;;;;;-142.43;100.00;63430.59;4958885;28;20051;-92
2023/06/24 09:04:03;;;;;;;13.00;10.00;;;;;;;-142.43;100.00;63430.59;4958875;28;20063;-93
2023/06/24 09:06:31;;;;;;;12.18;9.43;;;;;;;-142.43;100.00;63430.59;4958654;28;20036;-94
2023/06/24 09:11:59;;;;;;;22.90;10.07;;;;;;;-142.43;100.00;63430.59;5194054;23;20047;-83
2023/06/24 09:14:40;;;;;;;13.65;10.32;;;;;;;-142.43;100.00;63430.59;4950940;28;20636;-81
2023/06/24 09:17:09;;;;;;;12.60;9.85;;;;;;;-142.43;100.00;63430.59;4950430;28;20050;-81
2023/06/24 09:19:37;;;;;;;13.95;10.80;;;;;;;-142.43;100.00;63430.59;4949115;28;20109;-81
2023/06/24 09:22:16;;;;;;;12.95;10.10;;;;;;;-142.43;100.00;63430.59;4950190;28;20074;-81
2023/06/24 09:24:46;;;;;;;13.48;10.77;;;;;;;-142.43;100.00;63430.59;4952362;29;20122;-82
2023/06/24 09:27:19;;;;;;;18.50;10.63;;;;;;;-142.43;100.00;63430.59;4957289;28;20062;-82
2023/06/24 09:29:50;;;;;;;13.27;10.18;;;;;;;-142.43;100.00;63430.59;4956342;29;20426;-82
2023/06/24 09:32:21;;;;;;;13.93;9.75;;;;;;;-142.43;100.00;63430.59;4957793;28;20180;-81
2023/06/24 09:34:49;;;;;;;14.60;10.50;;;;;;;-142.43;100.00;63430.59;4957182;29;20070;-81
2023/06/24 09:37:24;;;;;;;16.05;10.98;;;;;;;-142.43;100.00;63430.59;4953660;28;20073;-82
2023/06/24 09:39:53;;;;;;;11.43;9.45;;;;;;;-142.43;100.00;63430.59;4953532;28;20490;-81
2023/06/24 09:42:36;;;;;;;16.08;10.25;;;;;;;-142.43;100.00;63430.59;4949930;29;20593;-82
2023/06/24 09:49:30;;;;;;;15.77;10.73;;;;;;;-142.43;100.00;63430.59;4951212;29;20056;-80
2023/06/24 10:01:10;;;;;;;15.05;10.63;;;;;;;-142.43;100.00;63430.59;4946275;28;20051;-80
2023/06/24 10:04:11;;;;;;;12.73;10.10;;;;;;;-142.43;100.00;63430.59;4959004;28;20047;-81
2023/06/24 10:19:56;;;;;;;10.07;6.90;;;;;;;-142.43;100.00;63430.59;4942271;29;20063;-83
2023/06/24 10:26:00;;;;;;;11.10;6.47;;;;;;;-142.43;100.00;63430.59;4906884;29;20087;-82
2023/06/24 10:29:21;;;;;;;;;;;;;;;;;;;;;
2023/06/24 10:36:06;;;;;;;9.13;6.72;;;;;;;-142.43;100.00;63430.59;4952858;29;20122;-83
2023/06/24 10:45:51;;;;;;;11.73;7.55;;;;;;;-142.43;100.00;63430.59;4948511;28;20079;-81
2023/06/24 10:48:58;;;;;;;8.48;6.25;;;;;;;-142.43;100.00;63430.59;4955508;28;20059;-82
2023/06/24 10:58:14;;;;;;;;;;;;;;;;;;;;;
2023/06/24 11:03:59;;;;;;;9.38;6.47;;;;;;;-142.43;100.00;63430.59;4952593;28;20044;-82
2023/06/24 11:19:29;;;;;;;;;;;;;;;;;;;;;
2023/06/24 11:22:40;;;;;;;7.90;6.45;;;;;;;-142.43;100.00;63430.59;4838093;29;20053;-82
2023/06/24 11:25:55;;;;;;;8.00;6.50;;;;;;;-142.43;100.00;63430.59;4901523;29;20052;-81
2023/06/24 11:29:04;;;;;;;7.25;6.15;;;;;;;-142.43;100.00;63430.59;4897014;29;20083;-81
2023/06/24 11:48:54;;;;;;;10.15;6.45;;;;;;;-142.43;100.00;63430.59;4900985;29;20061;-80
2023/06/24 11:54:47;;;;;;;;;;;;;;;;;;;;;
2023/06/24 12:04:04;;;;;;;6.75;5.93;;;;;;;-142.43;100.00;63430.59;4922375;29;20138;-81
2023/06/24 12:06:31;;;;;;;10.80;6.60;;;;;;;-142.43;100.00;63430.59;4936496;29;20044;-82
2023/06/24 12:08:58;;;;;;;9.70;6.30;;;;;;;-142.43;100.00;63430.59;4942126;29;20655;-83
2023/06/24 12:11:32;;;;;;;8.85;6.18;;;;;;;-142.43;100.00;63430.59;4941471;29;20484;-82
2023/06/24 12:14:04;;;;;;;8.88;6.28;;;;;;;-142.43;100.00;63430.59;4939374;29;20091;-81
2023/06/24 12:16:32;;;;;;;9.20;6.57;;;;;;;-142.43;100.00;63430.59;4935156;29;20048;-82
2023/06/24 12:18:59;;;;;;;8.30;6.03;;;;;;;-142.43;100.00;63430.59;4943077;29;20514;-81
2023/06/24 12:21:25;;;;;;;8.43;6.32;;;;;;;-142.43;100.00;63430.59;4943764;29;20115;-83
2023/06/24 12:23:56;;;;;;;8.55;6.20;;;;;;;-142.43;100.00;63430.59;4936194;29;20047;-83
2023/06/24 12:26:24;;;;;;;11.20;6.10;;;;;;;-142.43;100.00;63430.59;4940849;29;20047;-81
2023/06/24 12:29:04;;;;;;;8.82;6.40;;;;;;;-142.43;100.00;63430.59;4941596;29;20054;-83
2023/06/24 12:31:44;;;;;;;7.93;5.72;;;;;;;-142.43;100.00;63430.59;4939720;29;20111;-82
2023/06/24 12:34:11;;;;;;;10.27;6.40;;;;;;;-142.43;100.00;63430.59;4934508;29;20044;-83
2023/06/24 12:40:08;;;;;;;8.02;6.10;;;;;;;-142.43;100.00;63430.59;4883208;29;20037;-83
2023/06/24 12:43:04;;;;;;;10.75;5.75;;;;;;;-142.43;100.00;63430.59;4933726;29;20043;-81
2023/06/24 12:46:11;;;;;;;9.02;6.50;;;;;;;-142.43;100.00;63430.59;4940201;29;20057;-81
2023/06/24 12:49:09;;;;;;;9.55;6.70;;;;;;;-142.43;100.00;63430.59;4941386;29;20048;-80
2023/06/24 12:58:03;;;;;;;;;;;;;;;;;;;;;
2023/06/24 13:00:50;;;;;;;;;;;;;;;;;;;;;
2023/06/24 13:06:54;;;;;;;7.85;5.22;;;;;;;-142.43;100.00;63430.59;4897935;29;20051;-82
2023/06/24 13:09:22;;;;;;;7.55;5.22;;;;;;;-142.43;100.00;63430.59;4938435;29;20051;-80
2023/06/24 13:11:54;;;;;;;7.65;5.20;;;;;;;-142.43;100.00;63430.59;4928681;29;20115;-82
2023/06/24 13:17:43;;;;;;;8.50;5.28;;;;;;;-142.43;100.00;63430.59;4929816;29;20047;-80
2023/06/24 13:20:45;;;;;;;8.63;5.50;;;;;;;-142.43;100.00;63430.59;4930604;29;20498;-82
2023/06/24 13:23:30;;;;;;;6.82;5.10;;;;;;;-142.43;100.00;63430.59;4938366;29;20441;-81
2023/06/24 13:26:24;;;;;;;8.68;4.82;;;;;;;-142.43;100.00;63430.59;4930298;29;20185;-82
2023/06/24 13:28:57;;;;;;;6.10;4.90;;;;;;;-142.43;100.00;63430.59;4939227;29;20135;-83
2023/06/24 13:34:50;;;;;;;7.45;5.30;;;;;;;-142.43;100.00;63430.59;4931004;29;20055;-81
2023/06/24 13:43:58;;;;;;;7.60;5.00;;;;;;;-142.43;100.00;63430.59;4927792;29;20459;-83
2023/06/24 13:46:53;;;;;;;8.57;4.97;;;;;;;-142.43;100.00;63430.59;4921100;29;20070;-81
2023/06/24 13:49:45;;;;;;;9.15;5.63;;;;;;;-142.43;100.00;63430.59;4936452;29;20166;-82
2023/06/24 13:52:25;;;;;;;;;;;;;;;-142.43;100.00;63430.59;4937236;29;20063;-82
2023/06/24 13:55:06;;;;;;;7.60;5.10;;;;;;;-142.43;100.00;63430.59;4936897;29;20397;-81
2023/06/24 14:10:37;;;;;;;12.75;4.70;;;;;;;-142.43;100.00;63430.59;4934627;29;20047;-81
2023/06/24 14:13:56;;;;;;;6.55;4.40;;;;;;;-142.43;100.00;63430.59;4944435;29;20054;-84
2023/06/24 14:27:28;;;;;;;5.75;4.38;;;;;;;-142.43;100.00;63430.59;4826895;29;20062;-82
2023/06/24 14:30:43;;;;;;;;;;;;;;;;;;;;;
2023/06/24 14:34:07;;;;;;;5.90;4.45;;;;;;;-142.43;100.00;63430.59;4835352;29;20062;-80
2023/06/24 14:53:48;;;;;;;;;;;;;;;;;;;;;
2023/06/24 14:56:20;;;;;;;7.72;5.15;;;;;;;-142.43;100.00;63430.59;4938331;29;20051;-83
2023/06/24 14:59:02;;;;;;;6.67;4.50;;;;;;;-142.43;100.00;63430.59;4941425;29;20086;-82
2023/06/24 15:04:36;;;;;;;6.25;4.68;;;;;;;-142.43;100.00;63430.59;4945930;29;20056;-83
2023/06/24 15:07:13;;;;;;;6.65;4.15;;;;;;;-142.43;100.00;63430.59;4944217;29;20411;-82
2023/06/24 15:12:59;;;;;;;7.28;4.70;;;;;;;-142.43;100.00;63430.59;4935139;29;20055;-83
2023/06/24 15:15:51;;;;;;;6.28;4.70;;;;;;;-142.43;100.00;63430.59;4906721;29;20071;-83
2023/06/24 15:18:29;;;;;;;6.18;4.18;;;;;;;-142.43;100.00;63430.59;4943438;29;20051;-83
2023/06/24 15:21:07;;;;;;;8.98;4.63;;;;;;;-142.43;100.00;63430.59;4970502;23;20054;-80
2023/06/24 15:23:42;;;;;;;5.78;4.18;;;;;;;-142.43;100.00;63430.59;4955694;29;20062;-84
2023/06/24 15:26:29;;;;;;;6.35;4.18;;;;;;;-142.43;100.00;63430.59;4959781;29;20051;-83
2023/06/24 15:31:56;;;;;;;6.87;4.60;;;;;;;-142.43;100.00;63430.59;4974110;23;20070;-82
2023/06/24 15:34:26;;;;;;;8.18;4.05;;;;;;;-142.43;100.00;63430.59;4961300;28;20295;-85
2023/06/24 15:37:09;;;;;;;6.20;4.10;;;;;;;-142.43;100.00;63430.59;4959805;28;20054;-82
2023/06/24 15:43:33;;;;;;;4.78;3.80;;;;;;;-142.43;100.00;63430.59;4951991;29;20083;-84
2023/06/24 15:46:06;;;;;;;5.07;4.00;;;;;;;-142.43;100.00;63430.59;4881776;29;20104;-84
2023/06/24 15:48:40;;;;;;;7.53;4.20;;;;;;;-142.43;100.00;63430.59;4876686;29;20120;-83
2023/06/24 15:51:18;;;;;;;5.57;4.13;;;;;;;-142.43;100.00;63430.59;4940934;29;20549;-84
2023/06/24 15:54:03;;;;;;;6.78;3.65;;;;;;;-142.43;100.00;63430.59;4960610;29;20143;-84
2023/06/24 15:59:16;;;;;;;6.60;4.00;;;;;;;-142.43;100.00;63430.59;4930135;29;20058;-83
2023/06/24 16:02:05;;;;;;;5.68;4.20;;;;;;;-142.43;100.00;63430.59;4960582;29;20043;-84
2023/06/24 16:05:04;;;;;;;6.57;4.32;;;;;;;-142.43;100.00;63430.59;4953542;29;20465;-81
2023/06/24 16:07:48;;;;;;;5.93;3.95;;;;;;;-142.43;100.00;63430.59;4959799;29;20565;-84
2023/06/24 16:10:41;;;;;;;4.90;4.00;;;;;;;-142.43;100.00;63430.59;4960442;29;20055;-85
2023/06/24 16:14:07;;;;;;;;;;;;;;;;;;;;;
2023/06/24 16:20:06;;;;;;;4.68;3.78;;;;;;;-142.43;100.00;63430.59;4883913;29;20360;-82
2023/06/24 16:23:27;;;;;;;5.10;3.80;;;;;;;-142.43;100.00;63430.59;4947339;29;20063;-83
2023/06/24 16:26:51;;;;;;;6.10;3.90;;;;;;;-142.43;100.00;63430.59;4969495;29;20051;-81
2023/06/24 16:29:23;;;;;;;4.40;3.50;;;;;;;-142.43;100.00;63430.59;4907292;29;20052;-84
2023/06/24 16:32:50;;;;;;;5.20;3.90;;;;;;;-142.43;100.00;63430.59;4905394;29;20052;-84
2023/06/24 16:39:33;;;;;;;;;;;;;;;;;;;;;
2023/06/24 16:42:27;;;;;;;5.03;3.65;;;;;;;-142.43;100.00;63430.59;4937431;29;20065;-82
2023/06/24 16:44:54;;;;;;;5.45;3.50;;;;;;;-142.43;100.00;63430.59;4959775;29;20122;-83
2023/06/24 16:47:21;;;;;;;6.00;4.78;;;;;;;-142.43;100.00;63430.59;4963770;29;20520;-83
2023/06/24 16:49:48;;;;;;;4.05;3.42;;;;;;;-142.43;100.00;63430.59;4963395;29;20070;-83
2023/06/24 16:52:15;;;;;;;6.22;3.70;;;;;;;-142.43;100.00;63430.59;4961638;29;20102;-84
2023/06/24 16:54:42;;;;;;;7.07;4.15;;;;;;;-142.43;100.00;63430.59;4962372;29;20043;-84
2023/06/24 16:57:08;;;;;;;6.78;4.00;;;;;;;-142.43;100.00;63430.59;4961135;29;20130;-85
2023/06/24 16:59:36;;;;;;;7.00;3.80;;;;;;;-142.43;100.00;63430.59;4960173;29;20070;-85
2023/06/24 17:02:03;;;;;;;5.13;3.70;;;;;;;-142.43;100.00;63430.59;4961244;29;20131;-83
2023/06/24 17:04:30;;;;;;;4.57;3.58;;;;;;;-142.43;100.00;63430.59;4959788;29;20074;-84
2023/06/24 17:06:56;;;;;;;6.05;3.88;;;;;;;-142.43;100.00;63430.59;4961114;29;20066;-82
2023/06/24 17:09:23;;;;;;;4.40;3.55;;;;;;;-142.43;100.00;63430.59;4962241;29;20058;-84
2023/06/24 17:11:50;;;;;;;6.18;4.15;;;;;;;-142.43;100.00;63430.59;4961391;29;20075;-83